Time;durP1;ratioP1;P1;durP2;ratioP2;P2;SDS_P1;SDS_P2;PMS_P1;PMS_P2;Temp;Humidity;BMP_temperature;BMP_pressure;BME280_temperature;BME280_humidity;BME280_pressure;Samples;Min_cycle;Max_cycle;Signal;HPM_P1;HPM_P2
2023/12/06 00:01:59;;;;;;;24.70;16.27;;;2.00;99.90;;;;;;5077837;28;20551;-63
2023/12/06 00:04:27;;;;;;;25.17;15.77;;;2.00;99.90;;;;;;5077138;28;20552;-63
2023/12/06 00:06:55;;;;;;;24.10;15.37;;;2.00;99.90;;;;;;5077788;28;20489;-63
2023/12/06 00:09:22;;;;;;;27.70;15.20;;;2.00;99.90;;;;;;5078048;28;20465;-63
2023/12/06 00:11:49;;;;;;;21.83;14.40;;;2.00;99.90;;;;;;5077487;28;20922;-63
2023/12/06 00:14:17;;;;;;;26.07;16.10;;;1.90;99.90;;;;;;5077772;28;20467;-63
2023/12/06 00:16:44;;;;;;;22.57;13.57;;;1.90;99.90;;;;;;5077954;28;20452;-63
2023/12/06 00:19:11;;;;;;;30.50;15.30;;;2.00;99.90;;;;;;5077845;28;20544;-63
2023/12/06 00:21:41;;;;;;;24.60;14.33;;;1.90;99.90;;;;;;5077562;28;20461;-64
2023/12/06 00:24:08;;;;;;;20.40;13.77;;;2.00;99.90;;;;;;5078186;28;20752;-64
2023/12/06 00:26:36;;;;;;;24.23;14.70;;;2.00;99.90;;;;;;5077759;28;20457;-63
2023/12/06 00:29:03;;;;;;;21.33;13.10;;;1.90;99.90;;;;;;5077702;28;20517;-63
2023/12/06 00:31:30;;;;;;;20.80;13.80;;;1.90;99.90;;;;;;5077860;28;20465;-63
2023/12/06 00:33:58;;;;;;;20.67;13.37;;;1.90;99.90;;;;;;5077776;28;20449;-62
2023/12/06 00:36:27;;;;;;;19.57;13.87;;;1.80;99.90;;;;;;5077072;28;20464;-63
2023/12/06 00:38:56;;;;;;;18.07;13.60;;;1.90;99.90;;;;;;5077604;28;20476;-62
2023/12/06 00:41:24;;;;;;;21.90;13.10;;;1.90;99.90;;;;;;5077171;28;20461;-63
2023/12/06 00:43:53;;;;;;;20.43;13.23;;;1.90;99.90;;;;;;5077979;28;20473;-63
2023/12/06 00:46:20;;;;;;;22.87;13.27;;;1.90;99.90;;;;;;5077558;28;20469;-63
2023/12/06 00:48:48;;;;;;;24.90;16.03;;;1.80;99.90;;;;;;5077304;28;20490;-64
2023/12/06 00:51:15;;;;;;;27.57;17.30;;;1.80;99.90;;;;;;5077884;28;20487;-63
2023/12/06 00:53:43;;;;;;;26.60;17.40;;;1.80;99.90;;;;;;5077711;28;20468;-64
2023/12/06 00:56:15;;;;;;;29.83;17.57;;;1.80;99.90;;;;;;5077752;28;20460;-63
2023/12/06 00:58:43;;;;;;;28.27;17.70;;;1.80;99.90;;;;;;5077276;28;20462;-63
2023/12/06 01:01:11;;;;;;;26.63;18.53;;;1.80;99.90;;;;;;5077593;28;20458;-63
2023/12/06 01:03:39;;;;;;;27.70;17.50;;;1.70;99.90;;;;;;5077520;28;20457;-63
2023/12/06 01:06:08;;;;;;;24.50;16.37;;;1.70;99.90;;;;;;5077777;28;20457;-63
2023/12/06 01:08:35;;;;;;;28.40;17.80;;;1.70;99.90;;;;;;5077072;28;20834;-64
2023/12/06 01:11:02;;;;;;;28.97;16.90;;;1.70;99.90;;;;;;5077717;28;20457;-63
2023/12/06 01:13:31;;;;;;;29.90;18.73;;;1.60;99.90;;;;;;5077735;28;20556;-63
2023/12/06 01:15:58;;;;;;;29.80;18.90;;;1.60;99.90;;;;;;5079680;28;20461;-63
2023/12/06 01:18:26;;;;;;;27.80;17.70;;;1.70;99.90;;;;;;5081278;28;20886;-63
2023/12/06 01:20:53;;;;;;;25.90;17.23;;;1.70;99.90;;;;;;5081014;28;20568;-63
2023/12/06 01:23:20;;;;;;;24.10;16.33;;;1.70;99.90;;;;;;5081140;28;20468;-63
2023/12/06 01:25:47;;;;;;;26.40;15.47;;;1.70;99.90;;;;;;5080949;28;20548;-64
2023/12/06 01:28:15;;;;;;;27.43;15.90;;;1.70;99.90;;;;;;5080169;28;20496;-63
2023/12/06 01:30:44;;;;;;;26.10;16.87;;;1.70;99.90;;;;;;5080749;28;20469;-63
2023/12/06 01:33:11;;;;;;;22.77;15.23;;;1.70;99.90;;;;;;5080905;28;20461;-64
2023/12/06 01:35:38;;;;;;;23.47;15.23;;;1.70;99.90;;;;;;5080856;28;20898;-64
2023/12/06 01:38:05;;;;;;;20.33;14.03;;;1.60;99.90;;;;;;5081397;28;20522;-63
2023/12/06 01:40:35;;;;;;;20.27;13.37;;;1.60;99.90;;;;;;5080710;28;20551;-63
2023/12/06 01:43:03;;;;;;;19.17;13.47;;;1.70;99.90;;;;;;5080333;28;20866;-63
2023/12/06 01:45:30;;;;;;;23.23;14.40;;;1.70;99.90;;;;;;5081012;28;20559;-63
2023/12/06 01:47:59;;;;;;;19.23;14.70;;;1.70;99.90;;;;;;5080618;28;20630;-63
2023/12/06 01:50:27;;;;;;;24.87;15.40;;;1.70;99.90;;;;;;5081002;28;20481;-63
2023/12/06 01:52:59;;;;;;;34.00;19.73;;;1.60;99.90;;;;;;5080628;28;20464;-64
2023/12/06 01:55:27;;;;;;;28.50;17.87;;;1.60;99.90;;;;;;5081199;28;20511;-63
2023/12/06 01:57:54;;;;;;;29.53;19.57;;;1.50;99.90;;;;;;5080980;28;20953;-63
2023/12/06 02:00:22;;;;;;;30.67;18.50;;;1.30;99.90;;;;;;5080222;28;20467;-63
2023/12/06 02:02:49;;;;;;;29.00;18.33;;;1.40;99.90;;;;;;5078964;28;20457;-64
2023/12/06 02:05:18;;;;;;;32.13;19.60;;;1.40;99.90;;;;;;5079938;28;20539;-63
2023/12/06 02:07:48;;;;;;;34.50;21.67;;;1.40;99.90;;;;;;5079756;28;20521;-63
2023/12/06 02:10:16;;;;;;;33.80;20.87;;;1.50;99.90;;;;;;5080052;28;20431;-63
2023/12/06 02:12:43;;;;;;;35.70;20.30;;;1.50;99.90;;;;;;5080115;28;20442;-64
2023/12/06 02:15:11;;;;;;;34.40;19.07;;;1.50;99.90;;;;;;5080663;28;20440;-64
2023/12/06 02:17:40;;;;;;;27.50;19.67;;;1.50;99.90;;;;;;5080433;28;20443;-64
2023/12/06 02:20:09;;;;;;;30.13;19.13;;;1.50;99.90;;;;;;5080551;28;20862;-63
2023/12/06 02:22:38;;;;;;;33.60;20.37;;;1.50;99.90;;;;;;5079306;28;20559;-63
2023/12/06 02:25:11;;;;;;;28.80;18.10;;;1.50;99.90;;;;;;5080161;28;20453;-63
2023/12/06 02:27:42;;;;;;;28.57;17.80;;;1.50;99.90;;;;;;5079277;28;20560;-64
2023/12/06 02:30:10;;;;;;;26.67;17.23;;;1.50;99.90;;;;;;5080574;28;20458;-64
2023/12/06 02:32:37;;;;;;;27.13;18.70;;;1.40;99.90;;;;;;5079757;28;20444;-64
2023/12/06 02:35:14;;;;;;;29.63;18.87;;;1.40;99.90;;;;;;5080177;28;20462;-63
2023/12/06 02:37:42;;;;;;;29.57;19.20;;;1.50;99.90;;;;;;5080055;28;20461;-64
2023/12/06 02:40:13;;;;;;;29.90;19.20;;;1.30;99.90;;;;;;5080130;28;20534;-63
2023/12/06 02:42:40;;;;;;;32.17;19.33;;;1.40;99.90;;;;;;5080063;28;20876;-64
2023/12/06 02:45:08;;;;;;;39.90;22.80;;;1.30;99.90;;;;;;5079745;28;20465;-64
2023/12/06 02:47:35;;;;;;;37.17;23.87;;;1.30;99.90;;;;;;5079767;28;20489;-64
2023/12/06 02:50:03;;;;;;;42.13;23.70;;;1.40;99.90;;;;;;5078496;28;20493;-63
2023/12/06 02:52:30;;;;;;;37.43;23.17;;;1.40;99.90;;;;;;5079445;28;20460;-63
2023/12/06 02:54:57;;;;;;;36.70;23.63;;;1.40;99.90;;;;;;5079294;28;20496;-64
2023/12/06 02:57:26;;;;;;;44.40;25.60;;;1.50;99.90;;;;;;5079992;28;20680;-63
2023/12/06 02:59:53;;;;;;;42.00;25.90;;;1.40;99.90;;;;;;5079467;28;20458;-64
2023/12/06 03:02:20;;;;;;;40.10;24.60;;;1.40;99.90;;;;;;5078752;28;20432;-63
2023/12/06 03:04:47;;;;;;;41.90;25.00;;;1.40;99.90;;;;;;5079067;28;20462;-64
2023/12/06 03:07:15;;;;;;;40.67;25.93;;;1.40;99.90;;;;;;5078755;28;20490;-63
2023/12/06 03:09:42;;;;;;;46.87;27.53;;;1.40;99.90;;;;;;5079681;28;20503;-63
2023/12/06 03:12:09;;;;;;;43.30;27.17;;;1.30;99.90;;;;;;5079671;28;20440;-64
2023/12/06 03:14:39;;;;;;;45.37;27.53;;;1.30;99.90;;;;;;5079020;28;20460;-63
2023/12/06 03:17:06;;;;;;;42.43;27.37;;;1.30;99.90;;;;;;5079238;28;20889;-63
2023/12/06 03:19:34;;;;;;;44.50;25.33;;;1.40;99.90;;;;;;5078647;28;20439;-63
2023/12/06 03:22:01;;;;;;;39.50;25.23;;;1.40;99.90;;;;;;5078871;28;20469;-63
2023/12/06 03:24:28;;;;;;;46.40;28.43;;;1.40;99.90;;;;;;5079263;28;20478;-63
2023/12/06 03:26:55;;;;;;;50.37;29.20;;;1.40;99.90;;;;;;5078621;28;20487;-63
2023/12/06 03:29:22;;;;;;;48.53;30.13;;;1.40;99.90;;;;;;5078709;28;20489;-63
2023/12/06 03:31:51;;;;;;;44.30;28.43;;;1.50;99.90;;;;;;5078920;28;20882;-64
2023/12/06 03:34:18;;;;;;;43.83;27.87;;;1.40;99.90;;;;;;5078423;28;20783;-63
2023/12/06 03:36:45;;;;;;;47.60;29.00;;;1.40;99.90;;;;;;5078455;28;20465;-63
2023/12/06 03:39:13;;;;;;;47.20;28.90;;;1.30;99.90;;;;;;5077467;28;20555;-63
2023/12/06 03:41:40;;;;;;;46.20;28.10;;;1.30;99.90;;;;;;5078464;28;20484;-62
2023/12/06 03:44:07;;;;;;;48.03;28.67;;;1.30;99.90;;;;;;5078581;28;20819;-63
2023/12/06 03:46:34;;;;;;;41.67;26.00;;;1.20;99.90;;;;;;5078403;28;20467;-63
2023/12/06 03:49:03;;;;;;;44.30;26.80;;;1.20;99.90;;;;;;5078191;28;20496;-63
2023/12/06 03:51:30;;;;;;;45.13;26.60;;;1.20;99.90;;;;;;5078142;28;20765;-63
2023/12/06 03:53:58;;;;;;;39.67;24.90;;;1.20;99.90;;;;;;5078195;28;20460;-63
2023/12/06 03:56:25;;;;;;;41.40;25.10;;;1.20;99.90;;;;;;5078042;28;20728;-63
2023/12/06 03:58:52;;;;;;;44.63;26.37;;;1.20;99.90;;;;;;5077842;28;20464;-63
2023/12/06 04:01:19;;;;;;;36.90;24.80;;;1.20;99.90;;;;;;5077905;28;20476;-62
2023/12/06 04:03:46;;;;;;;45.80;27.27;;;1.20;99.90;;;;;;5077969;28;20445;-62
2023/12/06 04:06:15;;;;;;;41.77;25.80;;;1.20;99.90;;;;;;5077447;28;20457;-62
2023/12/06 04:08:42;;;;;;;40.97;26.93;;;1.20;99.90;;;;;;5077445;28;20501;-63
2023/12/06 04:11:09;;;;;;;42.20;27.47;;;1.20;99.90;;;;;;5077915;28;20556;-63
2023/12/06 04:13:37;;;;;;;42.17;26.97;;;1.00;99.90;;;;;;5078206;28;20552;-62
2023/12/06 04:16:04;;;;;;;44.77;27.30;;;1.00;99.90;;;;;;5078359;28;20560;-62
2023/12/06 04:18:31;;;;;;;41.20;27.83;;;0.90;99.90;;;;;;5077873;28;20481;-62
2023/12/06 04:20:59;;;;;;;38.40;26.73;;;0.90;99.90;;;;;;5077619;28;20905;-62
2023/12/06 04:23:27;;;;;;;44.60;28.60;;;0.90;99.90;;;;;;5077952;28;20555;-63
2023/12/06 04:25:54;;;;;;;41.03;29.00;;;0.90;99.90;;;;;;5078322;28;20468;-63
2023/12/06 04:28:22;;;;;;;49.73;29.83;;;0.90;99.90;;;;;;5077716;28;20479;-62
2023/12/06 04:30:49;;;;;;;46.20;30.20;;;0.90;99.90;;;;;;5077514;28;20462;-64
2023/12/06 04:33:16;;;;;;;51.40;33.00;;;0.90;99.90;;;;;;5077754;28;20499;-64
2023/12/06 04:35:42;;;;;;;48.70;33.47;;;0.90;99.90;;;;;;5078096;28;20889;-62
2023/12/06 04:38:09;;;;;;;46.47;32.40;;;0.80;99.90;;;;;;5078492;28;20539;-62
2023/12/06 04:40:38;;;;;;;56.43;36.00;;;0.80;99.90;;;;;;5077614;28;20911;-62
2023/12/06 04:43:04;;;;;;;56.67;38.10;;;0.90;99.90;;;;;;5077619;28;20467;-62
2023/12/06 04:45:32;;;;;;;59.27;38.17;;;0.80;99.90;;;;;;5077793;28;20464;-62
2023/12/06 04:47:59;;;;;;;60.03;38.50;;;0.90;99.90;;;;;;5077806;28;20463;-62
2023/12/06 04:50:27;;;;;;;55.43;37.60;;;0.90;99.90;;;;;;5078314;28;20489;-62
2023/12/06 04:52:54;;;;;;;52.20;35.37;;;0.80;99.90;;;;;;5081746;28;20462;-62
2023/12/06 04:55:21;;;;;;;58.30;38.97;;;0.80;99.90;;;;;;5081388;28;20571;-61
2023/12/06 04:57:50;;;;;;;54.63;38.50;;;0.80;99.90;;;;;;5081239;28;20925;-61
2023/12/06 05:00:18;;;;;;;56.10;36.70;;;0.80;99.90;;;;;;5081234;28;20428;-60
2023/12/06 05:02:45;;;;;;;53.53;34.73;;;0.90;99.90;;;;;;5080956;28;20812;-60
2023/12/06 05:05:13;;;;;;;53.37;36.30;;;0.80;99.90;;;;;;5080967;28;20460;-61
2023/12/06 05:07:40;;;;;;;49.47;34.70;;;0.90;99.90;;;;;;5080340;28;20484;-61
2023/12/06 05:10:09;;;;;;;51.63;35.17;;;1.00;99.90;;;;;;5080719;28;20606;-61
2023/12/06 05:12:35;;;;;;;43.87;30.97;;;0.90;99.90;;;;;;5063820;28;20540;-60
2023/12/06 05:15:04;;;;;;;49.30;34.43;;;1.00;99.90;;;;;;5060467;28;20462;-61
2023/12/06 05:17:32;;;;;;;46.47;33.63;;;0.90;99.90;;;;;;5060677;28;20465;-60
2023/12/06 05:19:59;;;;;;;44.13;32.40;;;0.90;99.90;;;;;;5060599;28;20429;-61
2023/12/06 05:22:26;;;;;;;47.87;34.30;;;1.00;99.90;;;;;;5060096;28;20472;-60
2023/12/06 05:24:53;;;;;;;43.60;31.67;;;1.00;99.90;;;;;;5060544;28;20464;-60
2023/12/06 05:27:21;;;;;;;43.37;30.63;;;1.10;99.90;;;;;;5060206;28;20469;-60
2023/12/06 05:29:49;;;;;;;44.43;31.80;;;1.10;99.90;;;;;;5060855;28;20504;-60
2023/12/06 05:32:17;;;;;;;42.40;31.80;;;1.00;99.90;;;;;;5060143;28;20523;-59
2023/12/06 05:34:44;;;;;;;39.80;29.30;;;1.00;99.90;;;;;;5060483;28;20484;-60
2023/12/06 05:37:12;;;;;;;40.10;29.13;;;1.00;99.90;;;;;;5060153;28;20906;-60
2023/12/06 05:39:39;;;;;;;41.53;29.93;;;1.10;99.90;;;;;;5060259;28;20460;-59
2023/12/06 05:42:06;;;;;;;39.97;30.60;;;1.00;99.90;;;;;;5060298;28;20555;-59
2023/12/06 05:44:34;;;;;;;37.40;29.80;;;1.10;99.90;;;;;;5060077;28;20488;-59
2023/12/06 05:47:02;;;;;;;41.37;29.23;;;1.00;99.90;;;;;;5060329;28;20462;-59
2023/12/06 05:49:31;;;;;;;34.27;26.30;;;1.10;99.90;;;;;;5060057;28;20601;-61
2023/12/06 05:51:58;;;;;;;39.50;27.70;;;1.10;99.90;;;;;;5060189;28;20480;-60
2023/12/06 05:54:25;;;;;;;40.23;29.00;;;1.10;99.90;;;;;;5060008;28;20556;-60
2023/12/06 05:56:52;;;;;;;43.07;29.90;;;1.10;99.90;;;;;;5058958;28;20453;-61
2023/12/06 05:59:20;;;;;;;45.90;29.43;;;1.10;99.90;;;;;;5059413;28;20461;-64
2023/12/06 06:01:47;;;;;;;44.13;30.97;;;1.10;99.90;;;;;;5057952;28;20464;-65
2023/12/06 06:04:14;;;;;;;46.53;30.33;;;1.00;99.90;;;;;;5058040;28;20461;-65
2023/12/06 06:06:43;;;;;;;43.90;30.07;;;1.00;99.90;;;;;;5059226;28;20559;-65
2023/12/06 06:09:11;;;;;;;45.60;31.80;;;1.10;99.90;;;;;;5059055;28;20631;-65
2023/12/06 06:11:38;;;;;;;50.70;32.50;;;1.10;99.90;;;;;;5059114;28;20904;-65
2023/12/06 06:14:05;;;;;;;55.57;33.90;;;1.10;99.90;;;;;;5059068;28;20772;-65
2023/12/06 06:16:33;;;;;;;56.47;36.20;;;1.10;99.90;;;;;;5059015;28;20515;-65
2023/12/06 06:19:00;;;;;;;53.07;34.63;;;1.10;99.90;;;;;;5059387;28;20461;-65
2023/12/06 06:21:28;;;;;;;55.57;36.00;;;1.20;99.90;;;;;;5059221;28;20457;-65
2023/12/06 06:23:56;;;;;;;59.83;37.60;;;1.20;99.90;;;;;;5058721;28;20511;-65
2023/12/06 06:26:24;;;;;;;58.30;36.73;;;1.30;99.90;;;;;;5057715;28;20470;-66
2023/12/06 06:28:51;;;;;;;58.00;35.67;;;1.30;99.90;;;;;;5058096;28;20441;-66
2023/12/06 06:31:18;;;;;;;52.27;33.70;;;1.30;99.90;;;;;;5058447;28;20561;-66
2023/12/06 06:33:45;;;;;;;52.57;34.10;;;1.30;99.90;;;;;;5058275;28;20470;-66
2023/12/06 06:36:13;;;;;;;61.03;35.90;;;1.30;99.90;;;;;;5057613;28;20532;-66
2023/12/06 06:38:42;;;;;;;53.87;34.40;;;1.40;99.90;;;;;;5058870;28;20469;-66
2023/12/06 06:41:11;;;;;;;56.27;35.57;;;1.40;99.90;;;;;;5061615;28;20473;-68
2023/12/06 06:43:38;;;;;;;64.40;35.70;;;1.50;99.90;;;;;;5077390;28;20498;-67
2023/12/06 06:46:06;;;;;;;61.27;39.27;;;1.40;99.90;;;;;;5076970;28;20551;-67
2023/12/06 06:48:33;;;;;;;55.43;35.87;;;1.40;99.90;;;;;;5077482;28;20436;-67
2023/12/06 06:51:00;;;;;;;53.70;33.83;;;1.40;99.90;;;;;;5077743;28;20775;-66
2023/12/06 06:53:27;;;;;;;63.57;37.90;;;1.40;99.90;;;;;;5077295;28;20977;-67
2023/12/06 06:55:54;;;;;;;58.30;35.30;;;1.30;99.90;;;;;;5077976;28;20458;-67
2023/12/06 06:58:22;;;;;;;58.20;33.70;;;1.40;99.90;;;;;;5078075;28;20464;-66
2023/12/06 07:00:50;;;;;;;61.43;35.80;;;1.40;99.90;;;;;;5078335;28;20468;-67
2023/12/06 07:03:18;;;;;;;61.47;36.73;;;1.40;99.90;;;;;;5078612;28;20948;-67
2023/12/06 07:05:45;;;;;;;58.00;35.40;;;1.40;99.90;;;;;;5078860;28;20746;-67
2023/12/06 07:08:13;;;;;;;47.50;29.97;;;1.40;99.90;;;;;;5077934;28;20501;-67
2023/12/06 07:10:40;;;;;;;54.77;33.70;;;1.40;99.90;;;;;;5078353;28;20517;-67
2023/12/06 07:13:07;;;;;;;51.43;34.07;;;1.40;99.90;;;;;;5076947;28;20463;-67
2023/12/06 07:15:36;;;;;;;50.77;33.00;;;1.40;99.90;;;;;;5076323;28;20559;-67
2023/12/06 07:18:03;;;;;;;52.97;32.60;;;1.40;99.90;;;;;;5076700;28;20895;-68
2023/12/06 07:20:30;;;;;;;52.53;32.27;;;1.50;99.90;;;;;;5076522;28;20552;-68
2023/12/06 07:23:00;;;;;;;47.30;30.80;;;1.50;99.90;;;;;;5077443;28;20559;-68
2023/12/06 07:25:29;;;;;;;48.40;33.00;;;1.50;99.90;;;;;;5077847;28;20463;-70
2023/12/06 07:27:56;;;;;;;50.13;32.57;;;1.50;99.90;;;;;;5078769;28;20466;-69
2023/12/06 07:30:23;;;;;;;51.27;31.87;;;1.50;99.90;;;;;;5079139;28;20769;-68
2023/12/06 07:32:52;;;;;;;49.67;33.23;;;1.50;99.90;;;;;;5080669;28;20462;-68
2023/12/06 07:35:19;;;;;;;52.13;32.50;;;1.50;99.90;;;;;;5079440;28;20466;-68
2023/12/06 07:37:46;;;;;;;50.70;32.33;;;1.60;99.90;;;;;;5079578;28;20804;-69
2023/12/06 07:40:14;;;;;;;53.43;32.23;;;1.60;99.90;;;;;;5080349;28;20519;-69
2023/12/06 07:42:41;;;;;;;48.73;30.70;;;1.60;99.90;;;;;;5081059;28;20467;-68
2023/12/06 07:45:11;;;;;;;54.50;33.53;;;1.60;99.90;;;;;;5081297;28;20833;-68
2023/12/06 07:47:39;;;;;;;48.83;31.63;;;1.60;99.90;;;;;;5081570;28;20453;-68
2023/12/06 07:50:10;;;;;;;56.50;32.80;;;1.60;99.90;;;;;;5079279;28;20485;-68
2023/12/06 07:52:39;;;;;;;49.77;31.57;;;1.60;99.90;;;;;;5077146;28;20453;-68
2023/12/06 07:55:09;;;;;;;48.97;32.33;;;1.60;99.90;;;;;;5076419;28;20556;-68
2023/12/06 07:57:38;;;;;;;48.47;31.37;;;1.60;99.90;;;;;;5074621;28;20879;-68
2023/12/06 08:00:07;;;;;;;53.67;32.30;;;1.60;99.90;;;;;;5075788;28;20943;-68
2023/12/06 08:02:36;;;;;;;52.23;32.77;;;1.70;99.90;;;;;;5075711;28;20813;-68
2023/12/06 08:05:04;;;;;;;53.03;33.67;;;1.70;99.90;;;;;;5075649;28;20886;-67
2023/12/06 08:07:32;;;;;;;53.63;34.50;;;1.70;99.90;;;;;;5075591;28;20488;-67
2023/12/06 08:10:07;;;;;;;60.87;35.50;;;1.80;99.90;;;;;;5075821;28;20553;-68
2023/12/06 08:12:35;;;;;;;61.87;37.17;;;1.70;99.90;;;;;;5075222;28;20479;-67
2023/12/06 08:15:05;;;;;;;56.57;35.60;;;1.80;99.90;;;;;;5076728;28;20932;-69
2023/12/06 08:17:33;;;;;;;59.50;35.60;;;1.80;99.90;;;;;;5076564;28;20746;-68
2023/12/06 08:20:00;;;;;;;57.10;36.17;;;1.80;99.90;;;;;;5077020;28;20464;-68
2023/12/06 08:22:28;;;;;;;65.10;37.50;;;1.90;99.90;;;;;;5078002;28;20493;-68
2023/12/06 08:24:57;;;;;;;64.40;36.87;;;1.90;99.90;;;;;;5077903;28;20735;-68
2023/12/06 08:27:27;;;;;;;70.17;37.90;;;1.90;99.90;;;;;;5078907;28;20462;-68
2023/12/06 08:29:55;;;;;;;66.50;39.50;;;2.00;99.90;;;;;;5078909;28;20883;-68
2023/12/06 08:32:23;;;;;;;64.40;39.07;;;2.00;99.90;;;;;;5079865;28;20457;-67
2023/12/06 08:34:51;;;;;;;59.17;38.57;;;2.00;99.90;;;;;;5078470;28;20660;-67
2023/12/06 08:37:18;;;;;;;61.93;37.77;;;2.00;99.90;;;;;;5078931;28;20461;-68
2023/12/06 08:39:47;;;;;;;58.80;37.63;;;2.00;99.90;;;;;;5079365;28;20436;-68
2023/12/06 08:42:16;;;;;;;61.53;38.97;;;2.10;99.90;;;;;;5079835;28;20525;-69
2023/12/06 08:44:43;;;;;;;61.27;38.10;;;2.10;99.90;;;;;;5080088;28;20461;-68
2023/12/06 08:47:11;;;;;;;63.03;37.40;;;2.10;99.90;;;;;;5082053;28;20443;-68
2023/12/06 08:49:39;;;;;;;56.70;36.33;;;2.20;99.90;;;;;;5089456;28;20461;-70
2023/12/06 08:52:08;;;;;;;55.30;39.03;;;2.20;99.90;;;;;;5090487;28;20436;-69
2023/12/06 08:54:37;;;;;;;57.40;37.60;;;2.20;99.90;;;;;;5090227;28;20525;-70
2023/12/06 08:57:05;;;;;;;52.13;35.60;;;2.20;99.90;;;;;;5089145;28;20516;-69
2023/12/06 08:59:33;;;;;;;51.70;34.43;;;2.10;99.90;;;;;;5086896;28;20462;-70
2023/12/06 09:02:01;;;;;;;53.33;35.40;;;2.20;99.90;;;;;;5087917;28;20477;-70
2023/12/06 09:04:28;;;;;;;55.20;35.40;;;2.20;99.90;;;;;;5083642;28;20474;-71
2023/12/06 09:06:56;;;;;;;53.37;33.87;;;2.30;99.90;;;;;;5083216;28;20534;-71
2023/12/06 09:09:23;;;;;;;52.07;34.87;;;2.30;99.90;;;;;;5082862;28;20464;-71
2023/12/06 09:11:51;;;;;;;53.37;34.23;;;2.30;99.90;;;;;;5080519;28;20472;-71
2023/12/06 09:14:18;;;;;;;52.27;34.20;;;2.30;99.90;;;;;;5080112;28;20547;-73
2023/12/06 09:16:47;;;;;;;49.70;33.30;;;2.30;99.90;;;;;;5078996;28;20561;-71
2023/12/06 09:19:16;;;;;;;54.57;34.10;;;2.30;99.90;;;;;;5078194;28;20468;-71
2023/12/06 09:21:45;;;;;;;50.87;35.33;;;2.40;99.90;;;;;;5077773;28;20536;-71
2023/12/06 09:24:13;;;;;;;53.63;36.60;;;2.40;99.90;;;;;;5077962;28;20599;-71
2023/12/06 09:26:42;;;;;;;51.17;35.67;;;2.40;99.90;;;;;;5077881;28;20527;-71
2023/12/06 09:29:10;;;;;;;49.93;33.97;;;2.40;99.90;;;;;;5077142;28;20552;-71
2023/12/06 09:31:38;;;;;;;48.10;33.73;;;2.40;99.90;;;;;;5076957;28;20489;-71
2023/12/06 09:34:07;;;;;;;50.50;34.37;;;2.50;99.90;;;;;;5077003;28;20912;-71
2023/12/06 09:36:35;;;;;;;50.97;35.90;;;2.50;99.90;;;;;;5077442;28;20743;-72
2023/12/06 09:39:04;;;;;;;42.70;31.27;;;2.50;99.90;;;;;;5080161;28;20931;-72
2023/12/06 09:41:33;;;;;;;49.93;35.30;;;2.50;99.90;;;;;;5079977;28;20733;-71
2023/12/06 09:44:01;;;;;;;43.67;32.67;;;2.50;99.90;;;;;;5080210;28;20931;-72
2023/12/06 09:46:29;;;;;;;44.90;32.47;;;2.50;99.90;;;;;;5079837;28;20461;-71
2023/12/06 09:48:57;;;;;;;46.03;33.17;;;2.50;99.90;;;;;;5080741;28;20461;-72
2023/12/06 09:51:26;;;;;;;42.13;29.90;;;2.50;99.90;;;;;;5083316;28;20569;-70
2023/12/06 09:53:53;;;;;;;42.90;31.97;;;2.60;99.90;;;;;;5092356;28;20504;-69
2023/12/06 09:56:21;;;;;;;41.07;31.00;;;2.50;99.90;;;;;;5090427;28;20485;-69
2023/12/06 09:58:48;;;;;;;39.33;29.43;;;2.60;99.90;;;;;;5088995;28;20473;-68
2023/12/06 10:01:16;;;;;;;37.23;27.97;;;2.50;99.90;;;;;;5088561;28;20461;-69
2023/12/06 10:03:46;;;;;;;33.20;25.27;;;2.60;99.90;;;;;;5089006;28;20465;-69
2023/12/06 10:06:14;;;;;;;31.47;24.77;;;2.60;99.90;;;;;;5089837;28;20468;-69
2023/12/06 10:08:48;;;;;;;28.70;23.30;;;2.70;99.90;;;;;;5090097;28;20505;-70
2023/12/06 10:11:15;;;;;;;30.33;24.90;;;2.60;99.90;;;;;;5087848;28;20464;-70
2023/12/06 10:13:43;;;;;;;32.40;25.00;;;2.60;99.90;;;;;;5088034;28;20465;-71
2023/12/06 10:16:17;;;;;;;32.83;25.13;;;2.70;99.90;;;;;;5085072;28;20458;-71
2023/12/06 10:18:48;;;;;;;28.93;23.90;;;2.70;99.90;;;;;;5081875;28;20543;-71
2023/12/06 10:21:16;;;;;;;35.37;24.37;;;2.70;99.90;;;;;;5080710;28;20556;-71
2023/12/06 10:23:54;;;;;;;31.50;23.70;;;2.70;99.90;;;;;;5080125;28;20493;-71
2023/12/06 10:26:21;;;;;;;28.20;23.93;;;2.70;99.90;;;;;;5073306;28;20477;-71
2023/12/06 10:28:49;;;;;;;31.37;24.23;;;2.80;99.90;;;;;;5079637;28;20504;-71
2023/12/06 10:31:17;;;;;;;31.10;23.70;;;2.90;99.90;;;;;;5080732;28;20482;-71
2023/12/06 10:33:46;;;;;;;30.90;25.50;;;2.80;99.90;;;;;;5080214;28;20817;-72
2023/12/06 10:36:14;;;;;;;30.70;24.40;;;2.80;99.90;;;;;;5079138;28;20559;-72
2023/12/06 10:38:43;;;;;;;25.27;20.97;;;2.90;99.90;;;;;;5078643;28;20458;-72
2023/12/06 10:41:16;;;;;;;25.93;20.40;;;2.90;99.90;;;;;;5072442;28;20543;-73
2023/12/06 10:43:44;;;;;;;24.43;21.70;;;2.80;99.90;;;;;;5081865;28;21005;-72
2023/12/06 10:46:13;;;;;;;24.60;21.00;;;2.90;99.90;;;;;;5097591;28;20454;-72
2023/12/06 10:48:41;;;;;;;25.97;21.93;;;3.00;99.90;;;;;;5098093;28;20563;-73
2023/12/06 10:51:09;;;;;;;28.93;23.03;;;3.10;99.90;;;;;;5098525;28;20531;-72
2023/12/06 10:53:42;;;;;;;26.73;21.30;;;3.20;99.90;;;;;;5099239;28;20471;-73
2023/12/06 10:56:11;;;;;;;29.53;22.40;;;3.20;99.90;;;;;;5099324;28;20551;-73
2023/12/06 10:58:40;;;;;;;25.53;22.07;;;3.20;99.90;;;;;;5098830;28;20464;-73
2023/12/06 11:01:10;;;;;;;35.00;21.20;;;3.30;99.90;;;;;;5098588;28;20461;-73
2023/12/06 11:03:38;;;;;;;30.50;23.70;;;3.20;99.90;;;;;;5095159;28;20464;-73
2023/12/06 11:06:19;;;;;;;27.60;23.17;;;3.30;99.90;;;;;;5078167;28;20990;-72
2023/12/06 11:09:03;;;;;;;29.87;23.67;;;3.30;99.90;;;;;;5077155;28;20488;-73
2023/12/06 11:11:46;;;;;;;31.60;24.40;;;3.20;99.90;;;;;;5076625;28;20484;-72
2023/12/06 11:14:42;;;;;;;31.67;25.03;;;3.30;99.90;;;;;;5076264;28;20469;-72
2023/12/06 11:17:25;;;;;;;37.37;27.47;;;3.30;99.90;;;;;;5076604;28;20556;-72
2023/12/06 11:19:53;;;;;;;34.03;27.10;;;3.50;99.90;;;;;;5076815;28;20556;-72
2023/12/06 11:22:24;;;;;;;37.13;29.27;;;3.50;99.90;;;;;;5076326;28;20544;-72
2023/12/06 11:24:52;;;;;;;38.37;30.67;;;3.60;99.90;;;;;;5077329;28;20466;-72
2023/12/06 11:27:23;;;;;;;41.63;29.60;;;3.60;99.90;;;;;;5078361;28;20552;-72
2023/12/06 11:29:50;;;;;;;40.43;30.87;;;3.60;99.90;;;;;;5077212;28;20572;-72
2023/12/06 11:32:18;;;;;;;40.57;31.30;;;3.60;99.90;;;;;;5077129;28;20589;-71
2023/12/06 11:34:55;;;;;;;38.10;29.70;;;3.50;99.90;;;;;;5076983;28;20523;-72
2023/12/06 11:37:22;;;;;;;37.63;29.07;;;3.50;99.90;;;;;;5077751;28;20461;-72
2023/12/06 11:40:18;;;;;;;42.00;29.43;;;3.50;99.90;;;;;;5077437;28;20458;-71
2023/12/06 11:42:57;;;;;;;37.33;29.13;;;3.60;99.90;;;;;;5077995;28;20755;-72
2023/12/06 11:45:29;;;;;;;39.60;29.07;;;3.50;99.90;;;;;;5077444;28;20490;-71
2023/12/06 11:47:59;;;;;;;37.50;28.40;;;3.60;99.90;;;;;;5077677;28;20560;-72
2023/12/06 11:50:27;;;;;;;42.27;29.27;;;3.60;99.90;;;;;;5077099;28;20568;-71
2023/12/06 11:52:55;;;;;;;38.27;28.47;;;3.60;99.90;;;;;;5077360;28;20523;-71
2023/12/06 11:55:28;;;;;;;36.20;27.63;;;3.60;99.90;;;;;;5075971;28;20461;-71
2023/12/06 11:58:07;;;;;;;38.57;29.90;;;3.60;99.90;;;;;;5076183;28;20486;-71
2023/12/06 12:00:35;;;;;;;30.97;26.33;;;3.60;99.90;;;;;;5074672;28;20457;-71
2023/12/06 12:03:04;;;;;;;34.70;27.43;;;3.60;99.90;;;;;;5076565;28;20511;-71
2023/12/06 12:05:33;;;;;;;34.87;27.00;;;3.50;99.90;;;;;;5076259;28;20459;-71
2023/12/06 12:08:02;;;;;;;36.63;27.67;;;3.50;99.90;;;;;;5076696;28;20489;-70
2023/12/06 12:10:30;;;;;;;36.77;26.93;;;3.60;99.90;;;;;;5076591;28;20729;-71
2023/12/06 12:12:58;;;;;;;31.27;24.63;;;3.60;99.90;;;;;;5076963;28;20551;-66
2023/12/06 12:15:27;;;;;;;32.60;25.73;;;3.50;99.90;;;;;;5076499;28;20893;-66
2023/12/06 12:17:55;;;;;;;35.00;26.50;;;3.60;99.90;;;;;;5076421;28;20461;-67
2023/12/06 12:20:23;;;;;;;35.40;26.90;;;3.60;99.90;;;;;;5075798;28;20971;-66
2023/12/06 12:22:52;;;;;;;36.43;27.10;;;3.60;99.90;;;;;;5077437;28;20454;-67
2023/12/06 12:25:22;;;;;;;30.63;24.80;;;3.70;99.90;;;;;;5077648;28;20461;-66
2023/12/06 12:27:50;;;;;;;28.77;22.97;;;3.80;99.90;;;;;;5077935;28;20515;-66
2023/12/06 12:30:17;;;;;;;29.80;23.50;;;3.70;99.90;;;;;;5077153;28;20548;-66
2023/12/06 12:32:50;;;;;;;40.30;24.83;;;3.80;99.90;;;;;;5076942;28;20493;-66
2023/12/06 12:35:19;;;;;;;32.10;26.07;;;3.80;99.90;;;;;;5075751;28;20556;-66
2023/12/06 12:37:47;;;;;;;38.30;28.63;;;3.80;99.90;;;;;;5076488;28;20562;-66
2023/12/06 12:40:15;;;;;;;35.53;27.47;;;3.80;99.90;;;;;;5077116;28;20492;-66
2023/12/06 12:42:43;;;;;;;36.67;27.97;;;3.80;99.90;;;;;;5076785;28;20458;-66